createdAt,value
2016-06-24T00:00:18.641Z,21.17
2016-06-24T00:01:17.939Z,21.21
2016-06-24T00:02:17.897Z,21.21
2016-06-24T00:03:17.901Z,21.03
2016-06-24T00:04:17.904Z,20.81
2016-06-24T00:05:17.882Z,20.84
2016-06-24T00:06:17.869Z,20.75
2016-06-24T00:07:17.848Z,20.78
2016-06-24T00:08:18.509Z,20.87
2016-06-24T00:09:17.831Z,20.87
2016-06-24T00:10:18.492Z,20.81
2016-06-24T00:11:17.788Z,20.81
2016-06-24T00:12:18.460Z,20.72
2016-06-24T00:13:18.407Z,20.82
2016-06-24T00:14:17.726Z,20.69
2016-06-24T00:15:18.414Z,20.85
2016-06-24T00:16:18.385Z,20.85
2016-06-24T00:17:17.680Z,20.63
2016-06-24T00:18:18.351Z,20.48
2016-06-24T00:19:17.670Z,20.69
2016-06-24T00:20:17.648Z,20.6
2016-06-24T00:21:18.283Z,20.56
2016-06-24T00:22:18.143Z,20.65
2016-06-24T00:23:17.435Z,20.67
2016-06-24T00:24:16.734Z,20.59
2016-06-24T00:25:17.993Z,20.67
2016-06-24T00:26:17.354Z,20.58
2016-06-24T00:27:17.967Z,20.6
2016-06-24T00:28:17.994Z,20.75
2016-06-24T00:29:16.683Z,20.69
2016-06-24T00:30:17.939Z,20.9
2016-06-24T00:31:17.890Z,20.78
2016-06-24T00:32:17.878Z,20.8
2016-06-24T00:33:17.853Z,20.84
2016-06-24T00:34:17.841Z,20.9
2016-06-24T00:35:17.190Z,20.75
2016-06-24T00:36:17.812Z,20.6
2016-06-24T00:37:17.794Z,20.6
2016-06-24T00:38:17.783Z,20.48
2016-06-24T00:39:17.763Z,20.52
2016-06-24T00:40:17.755Z,20.5
2016-06-24T00:41:17.745Z,20.55
2016-06-24T00:42:17.085Z,20.52
2016-06-24T00:43:17.057Z,20.7
2016-06-24T00:44:17.690Z,20.7
2016-06-24T00:45:17.705Z,20.66
2016-06-24T00:46:17.015Z,20.7
2016-06-24T00:47:17.655Z,20.5
2016-06-24T00:48:17.643Z,20.47
2016-06-24T00:49:17.655Z,20.55
2016-06-24T00:50:17.608Z,20.6
2016-06-24T00:51:16.948Z,20.51
2016-06-24T00:52:16.937Z,20.55
2016-06-24T00:53:16.290Z,20.58
2016-06-24T00:54:17.550Z,20.7
2016-06-24T00:55:17.547Z,20.62
2016-06-24T00:56:17.513Z,20.43
2016-06-24T00:57:16.858Z,20.51
2016-06-24T00:58:16.203Z,20.75
2016-06-24T00:59:17.483Z,20.66
2016-06-24T01:00:16.838Z,20.59
2016-06-24T01:01:17.451Z,20.55
2016-06-24T01:02:17.438Z,20.55
2016-06-24T01:03:17.414Z,20.52
2016-06-24T01:04:17.420Z,20.48
2016-06-24T01:05:17.380Z,20.6
2016-06-24T01:06:16.099Z,20.5
2016-06-24T01:07:16.733Z,20.47
2016-06-24T01:08:17.349Z,20.47
2016-06-24T01:09:16.688Z,20.58
2016-06-24T01:10:16.670Z,20.75
2016-06-24T01:11:16.657Z,20.75
2016-06-24T01:12:17.283Z,20.65
2016-06-24T01:13:17.286Z,20.65
2016-06-24T01:14:17.258Z,20.4
2016-06-24T01:15:17.243Z,20.39
2016-06-24T01:16:17.222Z,20.39
2016-06-24T01:17:16.569Z,20.69
2016-06-24T01:18:16.546Z,20.66
2016-06-24T01:19:16.538Z,20.66
2016-06-24T01:20:17.161Z,20.62
2016-06-24T01:21:16.521Z,20.48
2016-06-24T01:22:17.138Z,20.44
2016-06-24T01:23:17.119Z,20.41
2016-06-24T01:24:16.461Z,20.59
2016-06-24T01:25:17.106Z,20.44
2016-06-24T01:26:17.078Z,20.47
2016-06-24T01:27:16.430Z,20.56
2016-06-24T01:28:17.056Z,20.59
2016-06-24T01:29:17.037Z,20.65
2016-06-24T01:30:16.376Z,20.59
2016-06-24T01:31:16.362Z,20.67
2016-06-24T01:32:16.356Z,20.75
2016-06-24T01:33:16.987Z,20.81
2016-06-24T01:34:16.321Z,20.81
2016-06-24T01:35:16.944Z,20.66
2016-06-24T01:36:16.297Z,20.78
2016-06-24T01:37:16.926Z,20.72
2016-06-24T01:38:16.923Z,20.65
2016-06-24T01:39:15.613Z,20.65
2016-06-24T01:40:16.227Z,20.75
2016-06-24T01:41:16.866Z,20.69
2016-06-24T01:42:16.858Z,20.69
2016-06-24T01:43:16.839Z,20.56
2016-06-24T01:44:16.810Z,20.63
2016-06-24T01:45:16.173Z,20.56
2016-06-24T01:46:16.778Z,20.52
2016-06-24T01:47:16.129Z,20.63
2016-06-24T01:48:16.770Z,20.75
2016-06-24T01:49:16.102Z,20.67
2016-06-24T01:50:16.737Z,20.74
2016-06-24T01:51:16.065Z,20.59
2016-06-24T01:52:16.699Z,20.47
2016-06-24T01:53:16.033Z,20.55
2016-06-24T01:54:16.021Z,20.55
2016-06-24T01:55:16.663Z,20.56
2016-06-24T01:56:16.627Z,20.72
2016-06-24T01:57:16.637Z,20.81
2016-06-24T01:58:16.604Z,20.7
2016-06-24T01:59:16.617Z,20.82
2016-06-24T02:00:16.599Z,20.56
2016-06-24T02:01:16.582Z,20.59
2016-06-24T02:02:15.901Z,20.72
2016-06-24T02:03:16.558Z,20.67
2016-06-24T02:04:15.882Z,20.74
2016-06-24T02:05:16.519Z,20.59
2016-06-24T02:06:15.853Z,20.56
2016-06-24T02:07:15.835Z,20.5
2016-06-24T02:08:15.817Z,20.56
2016-06-24T02:09:15.812Z,20.56
2016-06-24T02:10:15.803Z,20.7
2016-06-24T02:11:16.435Z,20.58
2016-06-24T02:12:16.402Z,20.25
2016-06-24T02:13:16.391Z,20.4
2016-06-24T02:14:16.403Z,20.26
2016-06-24T02:15:15.719Z,20.31
2016-06-24T02:16:15.706Z,20.52
2016-06-24T02:17:15.055Z,20.74
2016-06-24T02:18:15.687Z,20.65
2016-06-24T02:19:15.039Z,20.48
2016-06-24T02:20:16.302Z,20.36
2016-06-24T02:21:16.268Z,20.28
2016-06-24T02:22:15.619Z,20.43
2016-06-24T02:23:16.247Z,20.26
2016-06-24T02:24:15.577Z,20.41
2016-06-24T02:25:16.216Z,20.4
2016-06-24T02:26:16.204Z,20.39
2016-06-24T02:27:15.535Z,20.43
2016-06-24T02:28:15.547Z,20.4
2016-06-24T02:29:15.521Z,20.63
2016-06-24T02:30:16.138Z,20.58
2016-06-24T02:31:15.480Z,20.52
2016-06-24T02:32:15.483Z,20.59
2016-06-24T02:33:15.477Z,20.4
2016-06-24T02:34:16.086Z,20.37
2016-06-24T02:35:16.076Z,20.28
2016-06-24T02:36:15.419Z,20.41
2016-06-24T02:37:16.046Z,20.47
2016-06-24T02:38:15.389Z,20.44
2016-06-24T02:39:15.379Z,20.47
2016-06-24T02:40:14.718Z,20.58
2016-06-24T02:41:15.353Z,20.56
2016-06-24T02:42:15.962Z,20.58
2016-06-24T02:43:15.958Z,20.6
2016-06-24T02:44:15.940Z,20.48
2016-06-24T02:45:15.920Z,20.47
2016-06-24T02:46:14.630Z,20.39
2016-06-24T02:47:15.886Z,20.32
2016-06-24T02:48:15.888Z,20.26
2016-06-24T02:49:15.865Z,20.28
2016-06-24T02:50:14.564Z,20.36
2016-06-24T02:51:15.206Z,20.41
2016-06-24T02:52:15.836Z,20.4
2016-06-24T02:53:15.169Z,20.39
2016-06-24T02:54:15.148Z,20.26
2016-06-24T02:55:15.138Z,20.1
2016-06-24T02:56:15.793Z,20.13
2016-06-24T02:57:15.132Z,20.29
2016-06-24T02:58:15.742Z,20.31
2016-06-24T02:59:15.752Z,20.31
2016-06-24T03:00:15.701Z,20.31
2016-06-24T03:01:15.687Z,20.22
2016-06-24T03:02:15.680Z,20.11
2016-06-24T03:03:15.671Z,20.09
2016-06-24T03:04:15.018Z,20.04
2016-06-24T03:05:14.346Z,20.04
2016-06-24T03:06:14.970Z,20.06
2016-06-24T03:07:14.959Z,20.09
2016-06-24T03:08:14.943Z,19.96
2016-06-24T03:09:15.558Z,20.1
2016-06-24T03:10:14.917Z,20.16
2016-06-24T03:11:15.538Z,20.29
2016-06-24T03:12:15.517Z,20.13
2016-06-24T03:13:14.875Z,20.16
2016-06-24T03:14:14.851Z,20.24
2016-06-24T03:15:15.489Z,20.37
2016-06-24T03:16:15.468Z,20.31
2016-06-24T03:17:14.813Z,20.02
2016-06-24T03:18:14.815Z,20.11
2016-06-24T03:19:15.421Z,20.11
2016-06-24T03:20:15.407Z,20.11
2016-06-24T03:21:15.409Z,20.14
2016-06-24T03:22:15.382Z,20.36
2016-06-24T03:23:15.373Z,20.43
2016-06-24T03:24:15.343Z,20.22
2016-06-24T03:25:15.329Z,20.28
2016-06-24T03:26:15.325Z,20.21
2016-06-24T03:27:15.313Z,20.34
2016-06-24T03:28:14.646Z,20.34
2016-06-24T03:29:14.646Z,20.34
2016-06-24T03:30:15.270Z,20.26
2016-06-24T03:31:15.254Z,20.36
2016-06-24T03:32:14.591Z,20.44
2016-06-24T03:33:15.220Z,20.43
2016-06-24T03:34:15.212Z,20.41
2016-06-24T03:35:15.189Z,20.37
2016-06-24T03:36:15.169Z,20.44
2016-06-24T03:37:14.518Z,20.39
2016-06-24T03:38:14.513Z,20.41
2016-06-24T03:39:15.125Z,20.39
2016-06-24T03:40:15.119Z,20.37
2016-06-24T03:41:14.466Z,20.43
2016-06-24T03:42:14.442Z,20.43
2016-06-24T03:43:15.071Z,20.41
2016-06-24T03:44:15.051Z,20.52
2016-06-24T03:45:15.035Z,20.48
2016-06-24T03:46:15.026Z,20.48
2016-06-24T03:47:14.371Z,20.4
2016-06-24T03:48:14.993Z,20.36
2016-06-24T03:49:14.992Z,20.5
2016-06-24T03:50:14.968Z,20.51
2016-06-24T03:51:14.959Z,20.62
2016-06-24T03:52:14.930Z,20.55
2016-06-24T03:53:14.277Z,20.62
2016-06-24T03:54:14.903Z,20.52
2016-06-24T03:55:14.890Z,20.48
2016-06-24T03:56:14.247Z,20.43
2016-06-24T03:57:14.860Z,20.4
2016-06-24T03:58:14.216Z,20.43
2016-06-24T03:59:14.180Z,20.41
2016-06-24T04:00:14.840Z,20.39
2016-06-24T04:01:14.821Z,20.52
2016-06-24T04:02:14.823Z,20.44
2016-06-24T04:03:13.501Z,20.41
2016-06-24T04:04:14.127Z,20.47
2016-06-24T04:05:14.756Z,20.59
2016-06-24T04:06:14.726Z,20.5
2016-06-24T04:07:14.718Z,20.48
2016-06-24T04:08:14.068Z,20.72
2016-06-24T04:09:14.036Z,20.66
2016-06-24T04:10:14.681Z,20.67
2016-06-24T04:11:14.019Z,20.59
2016-06-24T04:12:14.641Z,20.6
2016-06-24T04:13:13.996Z,20.65
2016-06-24T04:14:14.624Z,20.58
2016-06-24T04:15:13.958Z,20.59
2016-06-24T04:16:13.950Z,20.59
2016-06-24T04:17:14.571Z,20.58
2016-06-24T04:18:13.276Z,20.62
2016-06-24T04:19:14.555Z,20.55
2016-06-24T04:20:13.906Z,20.58
2016-06-24T04:21:14.505Z,20.65
2016-06-24T04:22:13.865Z,20.6
2016-06-24T04:23:13.849Z,20.56
2016-06-24T04:24:13.817Z,20.66
2016-06-24T04:25:13.825Z,20.7
2016-06-24T04:26:13.806Z,20.55
2016-06-24T04:27:13.798Z,20.58
2016-06-24T04:28:14.411Z,20.66
2016-06-24T04:29:14.400Z,20.52
2016-06-24T04:30:14.373Z,20.51
2016-06-24T04:31:14.362Z,20.58
2016-06-24T04:32:14.347Z,20.58
2016-06-24T04:33:14.335Z,20.69
2016-06-24T04:34:14.316Z,20.75
2016-06-24T04:35:13.666Z,20.77
2016-06-24T04:36:14.306Z,20.69
2016-06-24T04:37:14.283Z,20.56
2016-06-24T04:38:13.628Z,20.44
2016-06-24T04:39:13.610Z,20.59
2016-06-24T04:40:13.582Z,20.58
2016-06-24T04:41:13.576Z,20.65
2016-06-24T04:42:14.200Z,20.55
2016-06-24T04:43:13.541Z,20.52
2016-06-24T04:44:14.179Z,20.51
2016-06-24T04:45:14.158Z,20.56
2016-06-24T04:46:13.517Z,20.58
2016-06-24T04:47:14.129Z,20.63
2016-06-24T04:48:14.113Z,20.66
2016-06-24T04:49:13.462Z,20.72
2016-06-24T04:50:13.442Z,20.58
2016-06-24T04:51:14.087Z,20.69
2016-06-24T04:52:14.045Z,20.69
2016-06-24T04:53:14.047Z,20.69
2016-06-24T04:54:14.025Z,20.69
2016-06-24T04:55:14.012Z,20.77
2016-06-24T04:56:13.364Z,20.75
2016-06-24T04:57:13.351Z,20.88
2016-06-24T04:58:13.336Z,20.75
2016-06-24T04:59:13.962Z,20.75
2016-06-24T05:00:13.295Z,20.65
2016-06-24T05:01:13.931Z,20.6
2016-06-24T05:02:13.909Z,20.48
2016-06-24T05:03:13.266Z,20.56
2016-06-24T05:04:13.915Z,20.59
2016-06-24T05:05:13.247Z,20.56
2016-06-24T05:06:13.841Z,20.72
2016-06-24T05:07:13.834Z,20.67
2016-06-24T05:08:13.816Z,20.67
2016-06-24T05:09:13.803Z,20.62
2016-06-24T05:10:13.160Z,20.72
2016-06-24T05:11:13.780Z,20.63
2016-06-24T05:12:13.760Z,20.66
2016-06-24T05:13:13.103Z,20.56
2016-06-24T05:14:13.724Z,20.56
2016-06-24T05:15:13.081Z,20.56
2016-06-24T05:16:13.058Z,20.59
2016-06-24T05:17:13.692Z,20.59
2016-06-24T05:18:13.688Z,20.66
2016-06-24T05:19:13.021Z,20.65
2016-06-24T05:20:12.998Z,20.72
2016-06-24T05:21:13.625Z,20.8
2016-06-24T05:22:13.593Z,20.81
2016-06-24T05:23:12.967Z,20.75
2016-06-24T05:24:12.941Z,20.66
2016-06-24T05:25:13.575Z,20.78
2016-06-24T05:26:12.922Z,20.84
2016-06-24T05:27:12.264Z,20.69
2016-06-24T05:28:13.535Z,20.75
2016-06-24T05:29:12.892Z,20.84
2016-06-24T05:30:13.494Z,20.9
2016-06-24T05:31:12.843Z,20.87
2016-06-24T05:32:12.824Z,20.75
2016-06-24T05:33:13.452Z,20.74
2016-06-24T05:34:12.162Z,20.81
2016-06-24T05:35:13.433Z,20.72
2016-06-24T05:36:12.788Z,20.78
2016-06-24T05:37:13.395Z,20.88
2016-06-24T05:38:12.742Z,20.84
2016-06-24T05:39:12.721Z,20.67
2016-06-24T05:40:13.347Z,20.67
2016-06-24T05:41:12.697Z,20.82
2016-06-24T05:42:13.328Z,20.58
2016-06-24T05:43:13.309Z,20.65
2016-06-24T05:44:13.285Z,20.72
2016-06-24T05:45:12.637Z,20.95
2016-06-24T05:46:13.281Z,21.07
2016-06-24T05:47:13.249Z,20.96
2016-06-24T05:48:12.618Z,20.97
2016-06-24T05:49:12.595Z,20.74
2016-06-24T05:50:13.234Z,20.93
2016-06-24T05:51:12.551Z,20.85
2016-06-24T05:52:11.906Z,20.67
2016-06-24T05:53:13.164Z,20.74
2016-06-24T05:54:13.158Z,20.72
2016-06-24T05:55:13.135Z,20.75
2016-06-24T05:56:13.107Z,20.78
2016-06-24T05:57:13.114Z,20.82
2016-06-24T05:58:12.451Z,20.85
2016-06-24T05:59:13.069Z,20.88
2016-06-24T06:00:13.077Z,20.82
2016-06-24T06:01:12.416Z,20.81
2016-06-24T06:02:12.397Z,21.03
2016-06-24T06:03:12.374Z,21.06
2016-06-24T06:04:12.374Z,20.97
2016-06-24T06:05:12.984Z,20.93
2016-06-24T06:06:12.339Z,20.95
2016-06-24T06:07:12.958Z,20.93
2016-06-24T06:08:12.298Z,20.96
2016-06-24T06:09:12.301Z,20.9
2016-06-24T06:10:12.921Z,20.96
2016-06-24T06:11:12.251Z,20.95
2016-06-24T06:12:12.907Z,21
2016-06-24T06:13:12.879Z,21.03
2016-06-24T06:14:12.220Z,21.02
2016-06-24T06:15:11.549Z,20.99
2016-06-24T06:16:12.185Z,20.84
2016-06-24T06:17:12.220Z,20.7
2016-06-24T06:18:12.792Z,20.84
2016-06-24T06:19:12.167Z,20.9
2016-06-24T06:20:12.886Z,20.99
2016-06-24T06:21:12.757Z,21.02
2016-06-24T06:22:12.094Z,21.14
2016-06-24T06:23:12.111Z,20.93
2016-06-24T06:24:12.122Z,20.78
2016-06-24T06:25:12.066Z,20.85
2016-06-24T06:26:12.690Z,20.88
2016-06-24T06:27:12.689Z,20.9
2016-06-24T06:28:12.658Z,20.96
2016-06-24T06:29:11.354Z,20.85
2016-06-24T06:30:12.624Z,20.74
2016-06-24T06:31:12.612Z,20.74
2016-06-24T06:32:12.595Z,20.82
2016-06-24T06:33:12.582Z,20.95
2016-06-24T06:34:12.566Z,20.9
2016-06-24T06:35:12.544Z,20.87
2016-06-24T06:36:11.912Z,20.84
2016-06-24T06:37:12.523Z,20.84
2016-06-24T06:38:12.512Z,20.84
2016-06-24T06:39:12.505Z,20.85
2016-06-24T06:40:11.839Z,20.99
2016-06-24T06:41:12.457Z,20.95
2016-06-24T06:42:12.235Z,20.99
2016-06-24T06:43:11.786Z,21.09
2016-06-24T06:44:12.620Z,21.14
2016-06-24T06:45:12.398Z,21.2
2016-06-24T06:46:12.398Z,21
2016-06-24T06:47:11.735Z,21.15
2016-06-24T06:48:12.358Z,21.15
2016-06-24T06:49:11.722Z,21.17
2016-06-24T06:50:11.701Z,21.05
2016-06-24T06:51:12.315Z,20.96
2016-06-24T06:52:12.299Z,21.14
2016-06-24T06:53:11.647Z,21.21
2016-06-24T06:54:12.277Z,21.29
2016-06-24T06:55:12.269Z,21.27
2016-06-24T06:56:12.239Z,21.3
2016-06-24T06:57:10.947Z,21.24
2016-06-24T06:58:12.236Z,21.36
2016-06-24T06:59:11.577Z,21.29
2016-06-24T07:00:12.191Z,21.32
2016-06-24T07:01:12.175Z,21.33
2016-06-24T07:02:12.158Z,21.4
2016-06-24T07:03:11.510Z,21.46
2016-06-24T07:04:12.117Z,21.4
2016-06-24T07:05:12.115Z,21.39
2016-06-24T07:06:12.106Z,21.36
2016-06-24T07:07:11.441Z,21.35
2016-06-24T07:08:12.071Z,21.29
2016-06-24T07:09:12.064Z,21.18
2016-06-24T07:10:12.038Z,21.43
2016-06-24T07:11:12.076Z,21.48
2016-06-24T07:12:12.011Z,21.18
2016-06-24T07:13:12.008Z,21.33
2016-06-24T07:14:11.989Z,21.37
2016-06-24T07:15:11.343Z,21.21
2016-06-24T07:16:11.310Z,21.35
2016-06-24T07:17:11.969Z,21.32
2016-06-24T07:18:11.299Z,21.21
2016-06-24T07:19:11.911Z,21.4
2016-06-24T07:20:11.282Z,21.37
2016-06-24T07:21:11.261Z,21.24
2016-06-24T07:22:11.876Z,21.39
2016-06-24T07:23:11.875Z,21.43
2016-06-24T07:24:11.211Z,21.3
2016-06-24T07:25:11.822Z,21.42
2016-06-24T07:27:11.842Z,21.45
2016-06-24T07:28:11.139Z,21.43
2016-06-24T07:29:11.178Z,21.37
2016-06-24T07:30:11.129Z,21.22
2016-06-24T07:31:11.741Z,21.24
2016-06-24T07:32:11.114Z,21.36
2016-06-24T07:33:11.069Z,21.4
2016-06-24T07:34:11.694Z,21.39
2016-06-24T07:35:11.688Z,21.5
2016-06-24T07:36:11.680Z,21.52
2016-06-24T07:37:11.015Z,21.42
2016-06-24T07:38:10.357Z,21.43
2016-06-24T07:39:11.654Z,21.45
2016-06-24T07:40:10.986Z,21.3
2016-06-24T07:41:10.974Z,21.35
2016-06-24T07:42:11.572Z,21.33
2016-06-24T07:43:11.589Z,21.46
2016-06-24T07:44:10.926Z,21.45
2016-06-24T07:45:11.540Z,21.36
2016-06-24T07:46:10.887Z,21.42
2016-06-24T07:47:10.898Z,21.37
2016-06-24T07:48:10.234Z,21.24
2016-06-24T07:49:10.881Z,21.36
2016-06-24T07:50:10.857Z,21.55
2016-06-24T07:51:10.839Z,21.42
2016-06-24T07:52:11.436Z,21.61
2016-06-24T07:53:10.150Z,21.6
2016-06-24T07:54:10.781Z,21.67
2016-06-24T07:55:11.419Z,21.76
2016-06-24T07:56:10.111Z,21.67
2016-06-24T07:57:11.383Z,21.69
2016-06-24T07:58:10.729Z,21.75
2016-06-24T07:59:11.345Z,21.85
2016-06-24T08:00:11.325Z,21.91
2016-06-24T08:01:10.683Z,21.89
2016-06-24T08:02:11.306Z,21.75
2016-06-24T08:03:10.643Z,21.92
2016-06-24T08:04:11.272Z,22.04
2016-06-24T08:05:11.368Z,22.28
2016-06-24T08:06:10.608Z,22.15
2016-06-24T08:07:09.940Z,22.18
2016-06-24T08:08:11.207Z,22.17
2016-06-24T08:09:10.555Z,22.28
2016-06-24T08:10:11.180Z,22.22
2016-06-24T08:11:11.178Z,22.02
2016-06-24T08:12:11.166Z,22.13
2016-06-24T08:13:10.504Z,22.22
2016-06-24T08:14:11.122Z,22.26
2016-06-24T08:15:11.123Z,22.22
2016-06-24T08:16:11.107Z,22.36
2016-06-24T08:17:10.449Z,22.45
2016-06-24T08:18:11.086Z,22.39
2016-06-24T08:19:11.079Z,22.36
2016-06-24T08:20:10.412Z,22.38
2016-06-24T08:21:09.743Z,22.38
2016-06-24T08:22:11.025Z,22.53
2016-06-24T08:23:11.002Z,22.44
2016-06-24T08:24:10.981Z,22.43
2016-06-24T08:25:10.989Z,22.41
2016-06-24T08:26:10.329Z,22.39
2016-06-24T08:27:10.309Z,22.48
2016-06-24T08:28:10.941Z,22.44
2016-06-24T08:29:10.268Z,22.54
2016-06-24T08:30:10.910Z,22.62
2016-06-24T08:31:10.904Z,22.68
2016-06-24T08:32:10.245Z,22.68
2016-06-24T08:33:10.872Z,22.6
2016-06-24T08:34:10.856Z,22.66
2016-06-24T08:35:10.853Z,22.57
2016-06-24T08:36:10.185Z,22.69
2016-06-24T08:37:10.802Z,22.65
2016-06-24T08:38:09.540Z,22.66
2016-06-24T08:39:10.142Z,22.65
2016-06-24T08:40:10.122Z,22.76
2016-06-24T08:41:10.757Z,22.78
2016-06-24T08:42:10.101Z,22.85
2016-06-24T08:43:10.784Z,22.72
2016-06-24T08:44:10.070Z,22.62
2016-06-24T08:45:10.707Z,22.45
2016-06-24T08:46:10.064Z,22.5
2016-06-24T08:47:09.392Z,22.53
2016-06-24T08:48:09.391Z,22.48
2016-06-24T08:49:10.899Z,22.66
2016-06-24T08:50:10.627Z,22.68
2016-06-24T08:51:10.629Z,22.84
2016-06-24T08:52:09.982Z,22.7
2016-06-24T08:53:10.596Z,22.6
2016-06-24T08:54:09.934Z,22.65
2016-06-24T08:55:10.585Z,22.65
2016-06-24T08:56:09.928Z,22.78
2016-06-24T08:57:10.540Z,22.9
2016-06-24T08:58:10.526Z,23.08
2016-06-24T08:59:10.516Z,22.94
2016-06-24T09:00:10.587Z,22.99
2016-06-24T09:01:10.470Z,22.75
2016-06-24T09:02:09.830Z,22.91
2016-06-24T09:03:10.450Z,23.12
2016-06-24T09:04:10.457Z,23.02
2016-06-24T09:05:09.784Z,23.17
2016-06-24T09:06:10.429Z,23.23
2016-06-24T09:07:10.396Z,23.12
2016-06-24T09:08:10.378Z,22.96
2016-06-24T09:09:10.383Z,22.93
2016-06-24T09:10:09.729Z,22.94
2016-06-24T09:11:10.341Z,23.05
2016-06-24T09:12:10.363Z,23.13
2016-06-24T09:13:10.321Z,23.18
2016-06-24T09:14:10.317Z,23.25
2016-06-24T09:15:10.286Z,23.41
2016-06-24T09:16:24.442Z,23.2
2016-06-24T09:17:10.252Z,23.06
2016-06-24T09:18:09.641Z,23.08
2016-06-24T09:19:09.603Z,23.03
2016-06-24T09:20:10.234Z,22.96
2016-06-24T09:21:10.219Z,23.03
2016-06-24T09:22:10.202Z,22.94
2016-06-24T09:23:10.194Z,22.93
2016-06-24T09:24:10.178Z,23.1
2016-06-24T09:25:09.520Z,23.1
2016-06-24T09:26:10.136Z,23.28
2016-06-24T09:27:10.127Z,23.31
2016-06-24T09:28:09.617Z,23.4
2016-06-24T09:29:10.136Z,23.41
2016-06-24T09:30:09.455Z,23.31
2016-06-24T09:31:09.437Z,23.27
2016-06-24T09:32:09.417Z,23.08
2016-06-24T09:33:10.054Z,23.15
2016-06-24T09:34:10.046Z,23.27
2016-06-24T09:35:10.043Z,23.34
2016-06-24T09:36:10.016Z,23.24
2016-06-24T09:37:10.002Z,23.36
2016-06-24T09:38:09.342Z,23.55
2016-06-24T09:39:09.485Z,23.43
2016-06-24T09:40:09.317Z,23.44
2016-06-24T09:41:09.297Z,23.69
2016-06-24T09:42:09.281Z,23.78
2016-06-24T09:43:09.902Z,23.86
2016-06-24T09:44:09.898Z,23.87
2016-06-24T09:45:09.890Z,23.83
2016-06-24T09:46:09.882Z,23.83
2016-06-24T09:47:10.388Z,23.58
2016-06-24T09:48:09.423Z,23.73
2016-06-24T09:49:09.839Z,23.63
2016-06-24T09:50:09.194Z,23.69
2016-06-24T09:51:09.837Z,23.54
2016-06-24T09:52:09.142Z,23.37
2016-06-24T09:53:09.147Z,23.66
2016-06-24T09:54:09.777Z,23.69
2016-06-24T09:55:09.772Z,23.86
2016-06-24T09:56:09.738Z,23.86
2016-06-24T09:57:10.006Z,23.83
2016-06-24T09:58:09.713Z,23.8
2016-06-24T09:59:09.707Z,23.86
2016-06-24T10:00:08.422Z,23.96
2016-06-24T10:01:09.687Z,23.84
2016-06-24T10:02:09.662Z,23.95
2016-06-24T10:03:09.670Z,23.95
2016-06-24T10:04:09.022Z,23.73
2016-06-24T10:05:09.004Z,23.73
2016-06-24T10:06:08.367Z,23.95
2016-06-24T10:07:09.601Z,23.96
2016-06-24T10:08:09.591Z,24.16
2016-06-24T10:09:08.952Z,24.13
2016-06-24T10:10:08.936Z,23.93
2016-06-24T10:11:09.547Z,23.87
2016-06-24T10:12:08.889Z,23.87
2016-06-24T10:13:08.888Z,23.95
2016-06-24T10:14:09.518Z,23.91
2016-06-24T10:15:09.496Z,24.14
2016-06-24T10:16:08.843Z,23.87
2016-06-24T10:17:09.483Z,23.88
2016-06-24T10:18:09.444Z,24.01
2016-06-24T10:19:08.815Z,23.92
2016-06-24T10:20:08.787Z,23.99
2016-06-24T10:21:08.816Z,23.95
2016-06-24T10:22:08.782Z,24.05
2016-06-24T10:23:09.409Z,23.88
2016-06-24T10:24:09.387Z,23.83
2016-06-24T10:25:09.438Z,24.05
2016-06-24T10:26:08.726Z,24.16
2016-06-24T10:27:08.707Z,24.08
2016-06-24T10:28:09.331Z,24.24
2016-06-24T10:29:09.319Z,24.42
2016-06-24T10:30:09.307Z,24.54
2016-06-24T10:31:09.289Z,24.65
2016-06-24T10:32:09.286Z,24.63
2016-06-24T10:33:09.263Z,24.51
2016-06-24T10:34:07.990Z,24.36
2016-06-24T10:35:09.252Z,24.36
2016-06-24T10:36:09.232Z,24.36
2016-06-24T10:37:08.333Z,24.24
2016-06-24T10:38:09.713Z,24.4
2016-06-24T10:39:08.564Z,24.65
2016-06-24T10:40:09.191Z,24.35
2016-06-24T10:41:09.170Z,24.58
2016-06-24T10:42:09.165Z,24.43
2016-06-24T10:43:09.174Z,24.32
2016-06-24T10:44:09.138Z,24.35
2016-06-24T10:45:08.501Z,24.43
2016-06-24T10:46:09.116Z,24.29
2016-06-24T10:47:09.083Z,24.43
2016-06-24T10:48:08.429Z,24.6
2016-06-24T10:49:08.439Z,24.47
2016-06-24T10:50:09.085Z,24.68
2016-06-24T10:51:08.404Z,24.92
2016-06-24T10:52:09.064Z,24.84
2016-06-24T10:53:08.374Z,24.99
2016-06-24T10:54:09.008Z,24.93
2016-06-24T10:55:08.378Z,24.6
2016-06-24T10:56:09.041Z,25.06
2016-06-24T10:57:08.337Z,25.43
2016-06-24T10:58:08.960Z,25.29
2016-06-24T10:59:08.959Z,25.1
2016-06-24T11:00:08.928Z,25.07
2016-06-24T11:01:08.269Z,25.1
2016-06-24T11:02:08.258Z,24.96
2016-06-24T11:03:09.035Z,25.17
2016-06-24T11:04:09.136Z,25.32
2016-06-24T11:05:08.884Z,25.4
2016-06-24T11:06:08.291Z,25.44
2016-06-24T11:07:08.899Z,25.29
2016-06-24T11:08:08.190Z,25.7
2016-06-24T11:09:08.184Z,25.78
2016-06-24T11:10:08.165Z,25.75
2016-06-24T11:11:08.798Z,25.44
2016-06-24T11:12:08.167Z,25.55
2016-06-24T11:13:08.812Z,25.84
2016-06-24T11:14:08.782Z,25.35
2016-06-24T11:15:08.765Z,25.25
2016-06-24T11:16:08.776Z,25.41
2016-06-24T11:17:09.035Z,25.6
2016-06-24T11:18:08.128Z,25.75
2016-06-24T11:19:08.697Z,25.66
2016-06-24T11:20:08.046Z,25.47
2016-06-24T11:21:08.697Z,25.53
2016-06-24T11:22:08.668Z,25.83
2016-06-24T11:23:08.680Z,25.8
2016-06-24T11:24:08.662Z,26.15
2016-06-24T11:25:08.625Z,26.45
2016-06-24T11:26:08.024Z,26.66
2016-06-24T11:27:08.628Z,26.6
2016-06-24T11:28:08.586Z,26.23
2016-06-24T11:29:08.573Z,26.48
2016-06-24T11:30:08.561Z,26.47
2016-06-24T11:31:08.552Z,26.6
2016-06-24T11:32:07.924Z,26.25
2016-06-24T11:33:08.527Z,26.13
2016-06-24T11:34:08.527Z,26.16
2016-06-24T11:35:07.863Z,26.71
2016-06-24T11:36:08.488Z,26.81
2016-06-24T11:37:07.849Z,26.58
2016-06-24T11:38:08.485Z,26.55
2016-06-24T11:39:08.468Z,26.36
2016-06-24T11:40:08.758Z,26.29
2016-06-24T11:41:08.506Z,26.48
2016-06-24T11:42:08.938Z,26.7
2016-06-24T11:43:08.457Z,26.77
2016-06-24T11:44:08.199Z,27.22
2016-06-24T11:45:09.065Z,27.05
2016-06-24T11:46:08.438Z,27.35
2016-06-24T11:47:08.254Z,27.7
2016-06-24T11:48:08.404Z,27.67
2016-06-24T11:49:08.399Z,27.42
2016-06-24T11:50:07.733Z,28.02
2016-06-24T11:51:08.401Z,27.95
2016-06-24T11:52:08.375Z,28.04
2016-06-24T11:53:07.729Z,27.92
2016-06-24T11:54:07.747Z,28.26
2016-06-24T11:55:07.766Z,28.22
2016-06-24T11:56:07.098Z,28.45
2016-06-24T11:57:08.422Z,28.49
2016-06-24T11:58:08.392Z,29.16
2016-06-24T11:59:07.709Z,29.45
2016-06-24T12:00:07.102Z,29.57
2016-06-24T12:01:08.362Z,29.72
2016-06-24T12:02:07.730Z,30.02
2016-06-24T12:03:08.411Z,29.94
2016-06-24T12:04:08.355Z,29.97
2016-06-24T12:05:08.354Z,30.44
2016-06-24T12:06:08.375Z,30.03
2016-06-24T12:07:08.452Z,29.79
2016-06-24T12:08:08.444Z,29.32
2016-06-24T12:09:07.837Z,29.68
2016-06-24T12:10:07.784Z,29.57
2016-06-24T12:11:08.482Z,29.53
2016-06-24T12:12:07.178Z,29.49
2016-06-24T12:13:08.542Z,28.81
2016-06-24T12:14:08.500Z,29.49
2016-06-24T12:15:07.821Z,29.88
2016-06-24T12:16:08.505Z,30.23
2016-06-24T12:17:07.748Z,30.15
2016-06-24T12:18:07.710Z,31
2016-06-24T12:19:07.676Z,30.88
2016-06-24T12:20:08.365Z,31.28
2016-06-24T12:21:08.369Z,30.81
2016-06-24T12:22:08.338Z,30.66
2016-06-24T12:23:08.365Z,30.5
2016-06-24T12:24:07.645Z,30.61
2016-06-24T12:25:08.320Z,30.3
2016-06-24T12:26:08.307Z,29.41
2016-06-24T12:27:08.317Z,30.19
2016-06-24T12:28:08.302Z,30.47
2016-06-24T12:29:08.396Z,31.25
2016-06-24T12:30:07.679Z,31.59
2016-06-24T12:31:08.383Z,31.8
2016-06-24T12:32:08.365Z,31.59
2016-06-24T12:33:07.727Z,30.59
2016-06-24T12:34:08.394Z,30.32
2016-06-24T12:35:07.743Z,30.27
2016-06-24T12:36:08.385Z,30.21
2016-06-24T12:37:07.786Z,30.02
2016-06-24T12:38:08.377Z,30.96
2016-06-24T12:39:08.336Z,31.61
2016-06-24T12:40:07.711Z,31.28
2016-06-24T12:41:08.357Z,31.56
2016-06-24T12:42:07.651Z,30.78
2016-06-24T12:43:07.683Z,31.15
2016-06-24T12:44:07.681Z,31.61
2016-06-24T12:45:07.660Z,30.99
2016-06-24T12:46:08.346Z,31.12
2016-06-24T12:47:07.667Z,31.42
2016-06-24T12:48:07.689Z,31.42
2016-06-24T12:49:08.307Z,31.97
2016-06-24T12:50:07.689Z,32.45
2016-06-24T12:51:08.355Z,32.86
2016-06-24T12:52:08.343Z,33.23
2016-06-24T12:53:07.747Z,32.86
2016-06-24T12:54:08.418Z,32.63
2016-06-24T12:55:07.672Z,32.63
2016-06-24T12:56:07.669Z,33.07